createdAt,value
2024-05-09T00:04:50.362Z,10.41
2024-05-09T00:09:55.110Z,10.43
2024-05-09T00:14:59.751Z,10.46
2024-05-09T00:20:14.338Z,10.53
2024-05-09T00:25:25.086Z,10.49
2024-05-09T00:30:34.577Z,10.52
2024-05-09T00:35:44.302Z,10.61
2024-05-09T00:40:49.043Z,10.58
2024-05-09T00:45:55.001Z,10.52
2024-05-09T00:51:02.470Z,10.60
2024-05-09T00:56:08.162Z,10.63
2024-05-09T01:01:13.476Z,10.64
2024-05-09T01:06:22.658Z,10.58
2024-05-09T01:11:27.327Z,10.57
2024-05-09T01:16:32.012Z,10.48
2024-05-09T01:21:43.234Z,10.46
2024-05-09T01:26:50.689Z,10.29
2024-05-09T01:31:59.177Z,10.20
2024-05-09T01:37:03.933Z,10.08
2024-05-09T01:42:11.266Z,10.11
2024-05-09T01:47:15.966Z,10.02
2024-05-09T01:52:20.824Z,9.97
2024-05-09T01:57:28.312Z,9.90
2024-05-09T02:02:33.200Z,9.83
2024-05-09T02:07:38.094Z,9.81
2024-05-09T02:12:45.774Z,9.79
2024-05-09T02:17:50.840Z,9.71
2024-05-09T02:22:57.444Z,9.70
2024-05-09T02:28:04.935Z,9.73
2024-05-09T02:33:11.684Z,9.67
2024-05-09T02:38:18.285Z,9.61
2024-05-09T02:43:25.797Z,9.55
2024-05-09T02:48:30.586Z,9.52
2024-05-09T02:53:35.484Z,9.58
2024-05-09T02:58:42.917Z,9.61
2024-05-09T03:03:50.382Z,9.59
2024-05-09T03:08:55.181Z,9.64
2024-05-09T03:14:02.721Z,9.69
2024-05-09T03:19:07.735Z,9.70
2024-05-09T03:24:13.885Z,9.76
2024-05-09T03:29:21.615Z,9.83
2024-05-09T03:34:26.330Z,9.86
2024-05-09T03:39:31.154Z,9.92
2024-05-09T03:44:38.461Z,9.97
2024-05-09T03:49:43.208Z,9.88
2024-05-09T03:54:49.212Z,9.88
2024-05-09T03:59:56.479Z,10.08
2024-05-09T04:05:01.231Z,10.00
2024-05-09T04:10:08.907Z,10.14
2024-05-09T04:15:16.389Z,10.18
2024-05-09T04:20:32.347Z,10.24
2024-05-09T04:25:45.344Z,10.27
2024-05-09T04:30:53.137Z,10.13
2024-05-09T04:35:57.834Z,10.28
2024-05-09T04:41:02.598Z,10.23
2024-05-09T04:46:10.081Z,10.27
2024-05-09T04:51:14.867Z,10.31
2024-05-09T04:56:19.602Z,10.25
2024-05-09T05:01:26.917Z,10.30
2024-05-09T05:06:31.712Z,10.35
2024-05-09T05:11:36.434Z,10.51
2024-05-09T05:16:43.768Z,10.60
2024-05-09T05:21:48.420Z,10.63
2024-05-09T05:26:53.278Z,10.72
2024-05-09T05:32:00.818Z,10.86
2024-05-09T05:37:05.718Z,10.97
2024-05-09T05:42:10.462Z,11.05
2024-05-09T05:47:17.848Z,11.10
2024-05-09T05:52:22.648Z,11.12
2024-05-09T05:57:27.398Z,11.23
2024-05-09T06:02:36.062Z,11.41
2024-05-09T06:07:40.743Z,11.66
2024-05-09T06:12:45.362Z,11.94
2024-05-09T06:17:52.859Z,12.15
2024-05-09T06:22:57.599Z,12.24
2024-05-09T06:28:02.662Z,12.25
2024-05-09T06:33:14.998Z,12.28
2024-05-09T06:38:21.216Z,12.39
2024-05-09T06:43:26.110Z,12.47
2024-05-09T06:48:33.661Z,12.63
2024-05-09T06:53:43.577Z,12.64
2024-05-09T06:58:49.352Z,12.75
2024-05-09T07:03:56.908Z,12.89
2024-05-09T07:09:01.593Z,13.01
2024-05-09T07:14:07.296Z,13.14
2024-05-09T07:19:15.050Z,13.29
2024-05-09T07:24:20.174Z,13.44
2024-05-09T07:29:24.878Z,13.56
2024-05-09T07:34:32.168Z,13.66
2024-05-09T07:39:36.927Z,13.78
2024-05-09T07:44:41.683Z,13.90
2024-05-09T07:51:32.644Z,14.09
2024-05-09T07:55:14.617Z,14.24
2024-05-09T08:00:26.783Z,14.40
2024-05-09T08:05:38.192Z,14.50
2024-05-09T08:10:43.031Z,14.71
2024-05-09T08:15:47.739Z,14.84
2024-05-09T08:20:55.070Z,14.96
2024-05-09T08:25:59.854Z,15.06
2024-05-09T08:31:07.003Z,15.17
2024-05-09T08:36:14.935Z,15.25
2024-05-09T08:41:19.717Z,15.45
2024-05-09T08:46:24.707Z,15.62
2024-05-09T08:51:32.197Z,15.64
2024-05-09T08:56:37.782Z,15.86
2024-05-09T09:01:44.469Z,16.03
2024-05-09T09:06:56.559Z,16.21
2024-05-09T09:12:02.606Z,16.38
2024-05-09T09:17:15.451Z,16.64
2024-05-09T09:22:22.865Z,16.87
2024-05-09T09:27:27.816Z,16.95
2024-05-09T09:32:32.789Z,16.71
2024-05-09T09:37:40.824Z,16.79
2024-05-09T09:42:46.801Z,16.87
2024-05-09T09:47:51.959Z,17.15
2024-05-09T09:53:00.347Z,17.43
2024-05-09T09:58:09.582Z,17.54
2024-05-09T10:03:16.777Z,17.84
2024-05-09T10:08:26.142Z,18.25
2024-05-09T10:13:36.053Z,18.28
2024-05-09T10:18:41.835Z,18.65
2024-05-09T10:23:59.925Z,18.73
2024-05-09T10:29:15.510Z,18.85
2024-05-09T10:34:21.244Z,18.84
2024-05-09T10:39:28.661Z,18.94
2024-05-09T10:44:33.315Z,18.90
2024-05-09T10:49:38.369Z,19.40
2024-05-09T10:54:45.786Z,19.67
2024-05-09T10:59:53.162Z,19.95
2024-05-09T11:04:57.985Z,20.16
2024-05-09T11:10:12.526Z,19.86
2024-05-09T11:15:19.306Z,19.90
2024-05-09T11:20:29.518Z,20.01
2024-05-09T11:25:37.543Z,20.18
2024-05-09T11:30:42.241Z,20.24
2024-05-09T11:35:47.384Z,20.24
2024-05-09T11:40:54.946Z,20.70
2024-05-09T11:46:00.356Z,21.29
2024-05-09T11:51:05.104Z,21.72
2024-05-09T11:56:15.442Z,21.42
2024-05-09T12:01:21.019Z,21.50
2024-05-09T12:06:26.832Z,21.90
2024-05-09T12:11:34.488Z,22.12
2024-05-09T12:16:40.137Z,22.28
2024-05-09T12:21:45.269Z,22.43
2024-05-09T12:26:52.750Z,23.36
2024-05-09T12:31:57.578Z,23.35
2024-05-09T12:37:02.375Z,24.74
2024-05-09T12:42:12.456Z,37.90
2024-05-09T12:47:17.699Z,45.83
2024-05-09T12:52:22.500Z,48.39
2024-05-09T12:57:29.967Z,49.90
2024-05-09T13:02:34.782Z,49.60
2024-05-09T13:07:39.760Z,51.07
2024-05-09T13:12:49.294Z,51.55
2024-05-09T13:17:56.370Z,50.04
2024-05-09T13:23:04.835Z,46.07
2024-05-09T13:46:55.139Z,47.40
2024-05-09T13:51:59.814Z,51.21
2024-05-09T13:57:04.608Z,47.31
2024-05-09T14:02:12.020Z,41.63
2024-05-09T14:07:17.076Z,33.57
2024-05-09T14:12:21.850Z,31.46
2024-05-09T14:17:29.372Z,38.28
2024-05-09T14:22:35.740Z,47.84
2024-05-09T14:27:40.630Z,51.24
2024-05-09T14:32:49.227Z,52.11
2024-05-09T14:37:54.628Z,51.84
2024-05-09T14:43:02.565Z,51.36
2024-05-09T14:48:11.489Z,47.77
2024-05-09T14:53:16.562Z,38.75
2024-05-09T14:58:22.426Z,39.77
2024-05-09T15:03:30.330Z,41.55
2024-05-09T15:08:35.743Z,44.40
2024-05-09T15:13:40.802Z,45.09
2024-05-09T15:18:48.631Z,47.13
2024-05-09T15:23:53.897Z,48.07
2024-05-09T15:28:59.019Z,49.58
2024-05-09T15:34:08.436Z,49.24
2024-05-09T15:39:13.623Z,47.90
2024-05-09T15:44:18.654Z,45.68
2024-05-09T15:49:26.481Z,40.25
2024-05-09T15:54:31.790Z,35.37
2024-05-09T15:59:36.529Z,33.09
2024-05-09T16:04:44.447Z,31.66
2024-05-09T16:09:50.005Z,30.78
2024-05-09T16:14:55.367Z,30.23
2024-05-09T16:20:06.807Z,29.59
2024-05-09T16:25:13.753Z,28.84
2024-05-09T16:30:27.798Z,27.69
2024-05-09T16:35:42.145Z,26.80
2024-05-09T16:40:47.364Z,26.27
2024-05-09T16:45:53.782Z,26.01
2024-05-09T16:51:01.295Z,25.48
2024-05-09T16:56:06.602Z,25.35
2024-05-09T17:01:13.658Z,25.23
2024-05-09T17:06:21.352Z,24.92
2024-05-09T17:11:26.243Z,24.49
2024-05-09T17:16:31.471Z,24.12
2024-05-09T17:21:39.176Z,23.74
2024-05-09T17:26:45.980Z,23.38
2024-05-09T17:31:50.711Z,22.93
2024-05-09T17:36:58.148Z,22.47
2024-05-09T17:42:02.835Z,22.15
2024-05-09T17:47:08.041Z,21.86
2024-05-09T17:52:15.688Z,21.60
2024-05-09T17:57:20.420Z,21.37
2024-05-09T18:02:25.134Z,21.18
2024-05-09T18:07:32.596Z,20.95
2024-05-09T18:12:37.299Z,20.74
2024-05-09T18:17:42.681Z,20.67
2024-05-09T18:22:49.964Z,20.52
2024-05-09T18:27:54.784Z,20.30
2024-05-09T18:32:59.554Z,20.08
2024-05-09T18:44:15.539Z,19.63
2024-05-09T18:49:20.607Z,19.43
2024-05-09T18:54:28.013Z,19.27
2024-05-09T18:59:32.666Z,19.08
2024-05-09T19:04:37.467Z,18.84
2024-05-09T19:09:45.121Z,18.58
2024-05-09T19:14:49.811Z,18.30
2024-05-09T19:19:55.099Z,18.02
2024-05-09T19:25:02.579Z,17.77
2024-05-09T19:30:17.405Z,17.58
2024-05-09T19:35:29.054Z,17.32
2024-05-09T19:40:36.744Z,17.18
2024-05-09T19:45:41.601Z,16.98
2024-05-09T19:50:48.309Z,16.85
2024-05-09T19:55:58.476Z,16.65
2024-05-09T20:01:03.276Z,16.52
2024-05-09T20:06:08.224Z,16.42
2024-05-09T20:11:17.428Z,16.34
2024-05-09T20:16:22.187Z,16.16
2024-05-09T20:21:27.073Z,16.01
2024-05-09T20:26:34.518Z,15.89
2024-05-09T20:31:41.303Z,15.78
2024-05-09T20:36:45.983Z,15.67
2024-05-09T20:41:53.448Z,15.59
2024-05-09T20:47:00.612Z,15.52
2024-05-09T20:52:05.723Z,15.38
2024-05-09T20:57:13.166Z,15.27
2024-05-09T21:02:18.220Z,15.09
2024-05-09T21:07:23.238Z,15.09
2024-05-09T21:12:30.633Z,15.02
2024-05-09T21:17:35.585Z,14.99
2024-05-09T21:22:41.118Z,14.95
2024-05-09T21:27:48.501Z,14.85
2024-05-09T21:32:53.309Z,14.80
2024-05-09T21:37:57.940Z,14.65
2024-05-09T21:43:05.546Z,14.55
2024-05-09T21:48:11.268Z,14.52
2024-05-09T21:53:16.666Z,14.40
2024-05-09T21:58:24.035Z,14.28
2024-05-09T22:03:28.873Z,14.10
2024-05-09T22:08:33.611Z,13.98
2024-05-09T22:13:41.154Z,13.86
2024-05-09T22:18:46.024Z,13.77
2024-05-09T22:23:50.851Z,13.71
2024-05-09T22:28:58.092Z,13.66
2024-05-09T22:34:02.932Z,13.62
2024-05-09T22:39:08.428Z,13.55
2024-05-09T22:44:15.671Z,13.50
2024-05-09T22:49:20.284Z,13.46
2024-05-09T22:54:25.048Z,13.42
2024-05-09T22:59:32.535Z,13.39
2024-05-09T23:04:37.518Z,13.31
2024-05-09T23:09:42.239Z,13.25
2024-05-09T23:14:49.895Z,13.23
2024-05-09T23:19:54.672Z,13.13
2024-05-09T23:24:59.448Z,13.04
2024-05-09T23:30:12.011Z,12.95
2024-05-09T23:35:17.332Z,12.86
2024-05-09T23:40:23.487Z,12.83
2024-05-09T23:45:34.494Z,12.72
2024-05-09T23:50:40.567Z,12.68
2024-05-09T23:55:45.888Z,12.64
